YYD weather

Smithers Airport
Smithers, British Columbia, Canada

Public forecast

Using degrees Celsius for public forecast. Weather courtesy of forecast.io.

Current aviation weather report (METAR) for Smithers Airport

Retrieved 2020/04/04 21:00 UTC (1 hour ago):

CYYD 042100Z VRB02KT 25SM SKC 01/M16 A2984 RMK SLP129

Aviation forecast (TAF) for Smithers Airport

Retrieved 2020/04/04 19:00 UTC (3 hours ago):

TAF CYYD 041838Z 0419/0506 VRB03KT P6SM FEW060 FM042100 VRB03KT P6SM SCT060 TEMPO 0421/0506 BKN040 RMK NXT FCST BY 050100Z